Time;durP1;ratioP1;P1;durP2;ratioP2;P2;SDS_P1;SDS_P2;PMS_P1;PMS_P2;Temp;Humidity;BMP_temperature;BMP_pressure;BME280_temperature;BME280_humidity;BME280_pressure;Samples;Min_cycle;Max_cycle;Signal;HPM_P1;HPM_P2
2023/03/02 00:02:16;;;;;;;27.67;19.65;;;2.30;91.40;;;;;;5037898;28;20037;-44
2023/03/02 00:04:50;;;;;;;28.60;21.08;;;2.30;91.40;;;;;;5032212;28;20126;-44
2023/03/02 00:07:21;;;;;;;31.92;21.63;;;2.30;91.30;;;;;;5004435;28;20044;-44
2023/03/02 00:09:47;;;;;;;30.10;21.80;;;2.30;91.30;;;;;;5037161;28;20036;-44
2023/03/02 00:12:18;;;;;;;29.33;20.63;;;2.20;91.50;;;;;;5037329;28;20037;-44
2023/03/02 00:14:45;;;;;;;26.15;19.20;;;2.20;91.50;;;;;;5056015;28;20035;-43
2023/03/02 00:17:13;;;;;;;26.85;20.08;;;2.20;91.60;;;;;;5072597;28;20389;-44
2023/03/02 00:19:43;;;;;;;30.35;20.48;;;2.30;91.80;;;;;;5054287;28;20036;-44
2023/03/02 00:22:10;;;;;;;;;;;2.30;91.80;;;;;;5073696;28;20154;-43
2023/03/02 00:24:38;;;;;;;27.65;20.92;;;2.30;91.50;;;;;;5074407;28;19912;-44
2023/03/02 00:27:08;;;;;;;30.95;21.02;;;2.30;91.40;;;;;;5054010;28;20036;-45
2023/03/02 00:29:34;;;;;;;29.52;19.95;;;2.20;91.40;;;;;;5074043;28;20021;-44
2023/03/02 00:32:02;;;;;;;30.10;21.67;;;2.20;91.40;;;;;;5056491;28;20039;-44
2023/03/02 00:34:31;;;;;;;30.15;21.42;;;2.20;91.50;;;;;;5072627;28;20433;-44
2023/03/02 00:36:59;;;;;;;31.10;22.40;;;2.20;91.50;;;;;;5070206;28;20040;-44
2023/03/02 00:39:26;;;;;;;32.75;22.80;;;2.10;91.50;;;;;;5073976;28;20025;-44
2023/03/02 00:41:55;;;;;;;30.00;21.50;;;2.10;91.60;;;;;;5059207;28;20021;-44
2023/03/02 00:44:22;;;;;;;29.65;22.73;;;2.10;91.80;;;;;;5054236;28;20386;-45
2023/03/02 00:46:50;;;;;;;36.60;25.00;;;2.10;91.80;;;;;;5068865;28;20032;-44
2023/03/02 00:49:17;;;;;;;37.47;25.55;;;2.10;91.80;;;;;;5066911;28;20063;-44
2023/03/02 00:51:43;;;;;;;37.10;24.60;;;2.00;91.80;;;;;;5065816;28;20334;-44
2023/03/02 00:54:10;;;;;;;35.15;24.95;;;2.00;92.00;;;;;;5056225;28;20028;-43
2023/03/02 00:56:39;;;;;;;37.63;25.38;;;2.00;91.90;;;;;;5073036;28;20093;-44
2023/03/02 00:59:25;;;;;;;33.45;23.10;;;2.00;92.00;;;;;;5052538;28;20040;-45
2023/03/02 01:02:00;;;;;;;33.97;23.05;;;1.90;92.00;;;;;;5057911;28;20062;-43
2023/03/02 01:04:30;;;;;;;33.67;24.15;;;1.90;92.10;;;;;;5056573;28;20051;-44
2023/03/02 01:07:01;;;;;;;37.17;25.10;;;2.00;92.20;;;;;;5067279;28;20040;-45
2023/03/02 01:09:28;;;;;;;36.45;24.90;;;2.00;92.30;;;;;;5039256;28;20048;-44
2023/03/02 01:11:57;;;;;;;40.03;27.05;;;2.00;92.30;;;;;;5055992;28;20530;-46
2023/03/02 01:14:25;;;;;;;38.05;25.60;;;2.00;92.30;;;;;;5062445;28;20055;-44
2023/03/02 01:16:52;;;;;;;44.03;27.88;;;2.00;92.30;;;;;;5064927;28;20056;-45
2023/03/02 01:19:19;;;;;;;42.60;27.13;;;2.00;92.40;;;;;;5073267;28;20078;-45
2023/03/02 01:21:46;;;;;;;39.10;27.15;;;2.00;92.50;;;;;;5072265;28;20025;-44
2023/03/02 01:24:14;;;;;;;45.08;28.38;;;2.00;92.50;;;;;;5036347;28;20588;-44
2023/03/02 01:26:42;;;;;;;41.17;27.52;;;2.00;92.50;;;;;;5035841;28;20395;-45
2023/03/02 01:29:11;;;;;;;42.13;28.75;;;2.00;92.60;;;;;;5054319;28;20025;-45
2023/03/02 01:31:38;;;;;;;40.72;26.95;;;2.00;92.70;;;;;;5053529;28;20029;-44
2023/03/02 01:34:10;;;;;;;40.78;25.90;;;1.90;92.60;;;;;;5053159;28;20025;-44
2023/03/02 01:36:36;;;;;;;39.10;26.35;;;1.90;92.70;;;;;;5057794;28;20028;-44
2023/03/02 01:39:02;;;;;;;42.92;25.98;;;1.90;92.80;;;;;;5041850;28;20040;-43
2023/03/02 01:41:31;;;;;;;35.58;23.88;;;1.90;92.80;;;;;;5053213;28;20036;-44
2023/03/02 01:43:58;;;;;;;42.55;26.77;;;1.80;92.70;;;;;;5053067;28;20485;-43
2023/03/02 01:46:34;;;;;;;38.90;23.05;;;1.80;92.80;;;;;;5057179;28;20025;-44
2023/03/02 01:49:06;;;;;;;38.78;24.13;;;1.80;92.80;;;;;;5055861;28;20020;-45
2023/03/02 01:51:43;;;;;;;34.50;22.80;;;1.70;92.70;;;;;;5023793;28;20075;-44
2023/03/02 01:54:21;;;;;;;39.42;23.40;;;1.70;92.80;;;;;;5039470;28;20078;-44
2023/03/02 01:57:00;;;;;;;41.13;24.17;;;1.80;93.00;;;;;;5050637;28;20033;-44
2023/03/02 01:59:29;;;;;;;43.05;25.45;;;1.80;93.10;;;;;;5035971;28;20037;-43
2023/03/02 02:02:00;;;;;;;39.80;22.58;;;1.90;93.00;;;;;;5054992;28;20071;-44
2023/03/02 02:04:32;;;;;;;40.67;23.42;;;1.90;93.00;;;;;;5039472;28;20063;-48
2023/03/02 02:07:02;;;;;;;37.65;21.92;;;1.80;92.90;;;;;;5043620;28;20093;-43
2023/03/02 02:09:33;;;;;;;35.83;21.50;;;1.70;92.80;;;;;;5024064;28;20179;-44
2023/03/02 02:12:00;;;;;;;42.30;25.42;;;1.70;92.80;;;;;;5039578;28;20095;-44
2023/03/02 02:14:26;;;;;;;44.75;25.10;;;1.70;92.80;;;;;;5056875;28;20067;-45
2023/03/02 02:16:55;;;;;;;40.72;24.13;;;1.70;92.80;;;;;;5041088;28;20091;-43
2023/03/02 02:19:59;;;;;;;38.57;23.20;;;1.70;92.80;;;;;;5058937;28;20028;-44
2023/03/02 02:23:15;;;;;;;41.42;22.95;;;1.70;92.90;;;;;;5062434;28;20024;-44
2023/03/02 02:26:08;;;;;;;37.92;21.48;;;1.60;92.80;;;;;;5038496;28;20036;-43
2023/03/02 02:28:57;;;;;;;37.92;22.15;;;1.60;92.80;;;;;;5057422;28;20124;-43
2023/03/02 02:31:47;;;;;;;32.55;19.70;;;1.50;92.70;;;;;;5054665;28;20079;-45
2023/03/02 02:34:22;;;;;;;42.42;22.38;;;1.50;92.60;;;;;;5056290;28;20029;-43
2023/03/02 02:36:55;;;;;;;39.47;21.85;;;1.50;92.70;;;;;;5070171;28;20111;-43
2023/03/02 02:39:30;;;;;;;37.47;22.70;;;1.50;92.70;;;;;;5015213;28;20041;-43
2023/03/02 02:42:01;;;;;;;36.97;20.95;;;1.40;92.80;;;;;;5039844;28;20522;-44
2023/03/02 02:44:27;;;;;;;39.20;23.38;;;1.50;92.90;;;;;;5039141;28;20046;-43
2023/03/02 02:46:52;;;;;;;38.15;21.10;;;1.50;93.00;;;;;;5055989;28;20032;-44
2023/03/02 02:49:37;;;;;;;40.60;24.60;;;1.50;92.90;;;;;;5074089;28;20327;-43
2023/03/02 02:52:08;;;;;;;36.10;21.00;;;1.50;92.80;;;;;;5048795;28;20086;-43
2023/03/02 02:54:40;;;;;;;36.70;21.40;;;1.50;92.80;;;;;;5039007;28;20389;-43
2023/03/02 02:57:06;;;;;;;36.67;22.08;;;1.40;92.70;;;;;;5039219;28;20037;-44
2023/03/02 02:59:42;;;;;;;40.85;23.95;;;1.50;92.80;;;;;;5057476;28;20481;-45
2023/03/02 03:02:26;;;;;;;40.80;23.80;;;1.40;92.80;;;;;;5041487;28;20033;-44
2023/03/02 03:05:01;;;;;;;42.92;24.23;;;1.40;92.70;;;;;;5060022;28;20093;-44
2023/03/02 03:07:29;;;;;;;40.75;22.15;;;1.40;92.70;;;;;;5073015;28;20043;-43
2023/03/02 03:10:03;;;;;;;39.90;21.73;;;1.40;92.80;;;;;;5057950;28;20075;-44
2023/03/02 03:12:32;;;;;;;35.92;21.20;;;1.40;92.80;;;;;;5039692;28;20036;-43
2023/03/02 03:15:00;;;;;;;33.72;20.13;;;1.40;92.70;;;;;;5058010;28;20059;-43
2023/03/02 03:17:29;;;;;;;32.38;20.58;;;1.40;92.70;;;;;;5055724;28;20083;-45
2023/03/02 03:20:04;;;;;;;31.45;19.88;;;1.20;92.50;;;;;;5038593;28;20100;-44
2023/03/02 03:22:37;;;;;;;28.88;18.95;;;1.30;92.70;;;;;;5065074;28;20358;-44
2023/03/02 03:25:05;;;;;;;30.55;18.50;;;1.20;92.60;;;;;;5075573;28;20033;-44
2023/03/02 03:27:32;;;;;;;32.95;20.30;;;1.20;92.60;;;;;;5069959;28;20083;-44
2023/03/02 03:30:00;;;;;;;41.75;21.05;;;1.20;92.60;;;;;;5038072;28;20036;-44
2023/03/02 03:32:28;;;;;;;34.03;18.92;;;1.10;92.40;;;;;;5064411;28;20021;-43
2023/03/02 03:34:58;;;;;;;39.72;20.50;;;1.10;92.60;;;;;;5075681;28;20044;-46
2023/03/02 03:37:25;;;;;;;;;;;1.10;92.80;;;;;;5055824;28;20025;-43
2023/03/02 03:39:52;;;;;;;34.17;20.80;;;1.10;92.70;;;;;;5057773;28;20257;-43
2023/03/02 03:42:19;;;;;;;42.08;20.38;;;1.10;92.80;;;;;;5054960;28;20116;-44
2023/03/02 03:44:47;;;;;;;33.33;19.27;;;1.10;92.80;;;;;;5055189;28;20126;-44
2023/03/02 03:47:13;;;;;;;34.45;19.90;;;1.10;92.80;;;;;;5054806;28;20434;-44
2023/03/02 03:49:40;;;;;;;35.05;19.90;;;1.10;92.80;;;;;;5054959;28;20051;-45
2023/03/02 03:52:07;;;;;;;34.33;20.33;;;1.10;92.90;;;;;;5039919;28;20020;-45
2023/03/02 03:54:34;;;;;;;33.75;21.05;;;1.10;92.90;;;;;;5074375;28;20128;-44
2023/03/02 03:57:01;;;;;;;34.58;20.75;;;1.10;93.00;;;;;;5070021;28;20516;-44
2023/03/02 03:59:27;;;;;;;30.88;18.17;;;1.10;93.00;;;;;;5042061;28;20076;-43
2023/03/02 04:01:59;;;;;;;28.48;20.02;;;1.10;93.00;;;;;;5054969;28;20068;-43
2023/03/02 04:04:28;;;;;;;33.33;19.70;;;1.10;93.10;;;;;;5039902;28;20040;-45
2023/03/02 04:07:00;;;;;;;31.40;19.17;;;1.00;93.00;;;;;;5042870;28;20029;-45
2023/03/02 04:09:26;;;;;;;34.60;19.05;;;1.10;93.10;;;;;;5073418;28;20113;-45
2023/03/02 04:11:57;;;;;;;34.95;19.38;;;1.10;93.00;;;;;;5074580;28;20425;-45
2023/03/02 04:14:24;;;;;;;35.85;18.70;;;1.00;93.00;;;;;;5041333;28;20450;-43
2023/03/02 04:16:51;;;;;;;40.92;19.85;;;1.00;92.90;;;;;;5054017;28;20052;-44
2023/03/02 04:19:18;;;;;;;39.90;20.08;;;1.10;93.20;;;;;;5054411;28;20027;-44
2023/03/02 04:21:48;;;;;;;46.75;20.98;;;1.10;93.30;;;;;;5036598;28;20028;-44
2023/03/02 04:24:19;;;;;;;41.20;19.58;;;1.10;93.10;;;;;;5052085;28;20040;-45
2023/03/02 04:26:50;;;;;;;34.80;17.83;;;1.10;93.30;;;;;;5040240;28;20433;-43
2023/03/02 04:29:22;;;;;;;54.35;17.92;;;1.10;93.30;;;;;;5038688;28;20033;-44
2023/03/02 04:31:49;;;;;;;41.53;18.50;;;1.00;93.20;;;;;;5053460;28;20106;-44
2023/03/02 04:34:20;;;;;;;58.95;18.35;;;1.00;93.40;;;;;;5032968;28;20107;-43
2023/03/02 04:36:51;;;;;;;29.13;16.67;;;1.00;93.50;;;;;;5054080;28;20124;-43
2023/03/02 04:39:20;;;;;;;31.02;17.35;;;1.00;93.50;;;;;;5066265;28;20071;-44
2023/03/02 04:41:47;;;;;;;50.83;16.88;;;1.00;93.60;;;;;;5051333;28;20116;-45
2023/03/02 04:44:15;;;;;;;62.30;17.85;;;1.00;93.60;;;;;;5053807;28;20036;-43
2023/03/02 04:46:44;;;;;;;39.65;16.25;;;0.90;93.60;;;;;;5053847;28;20048;-43
2023/03/02 04:49:11;;;;;;;30.25;15.68;;;0.90;93.60;;;;;;5053708;28;20032;-43
2023/03/02 04:51:44;;;;;;;32.20;14.30;;;0.90;93.60;;;;;;5035850;28;20043;-44
2023/03/02 04:54:20;;;;;;;21.23;13.43;;;0.80;93.50;;;;;;5065420;28;20024;-44
2023/03/02 04:56:47;;;;;;;41.72;13.73;;;0.90;93.80;;;;;;5053711;28;20059;-45
2023/03/02 04:59:15;;;;;;;28.73;14.32;;;0.90;93.90;;;;;;5053417;28;20025;-43
2023/03/02 05:01:43;;;;;;;26.05;15.13;;;0.90;93.70;;;;;;5054280;28;20390;-43
2023/03/02 05:04:11;;;;;;;21.80;13.63;;;1.00;93.90;;;;;;5039593;28;20059;-43
2023/03/02 05:06:37;;;;;;;24.33;14.80;;;1.00;94.00;;;;;;5052229;28;20041;-44
2023/03/02 05:09:05;;;;;;;26.98;16.98;;;1.10;94.00;;;;;;5060931;28;20029;-44
2023/03/02 05:11:34;;;;;;;25.60;16.30;;;1.10;94.00;;;;;;5055504;28;20434;-44
2023/03/02 05:14:04;;;;;;;40.83;16.15;;;1.10;93.80;;;;;;5050281;28;20462;-43
2023/03/02 05:16:34;;;;;;;25.58;14.43;;;1.00;93.70;;;;;;5035911;28;20061;-46
2023/03/02 05:19:11;;;;;;;;;;;1.00;93.70;;;;;;5053598;28;20447;-43
2023/03/02 05:21:39;;;;;;;21.17;12.52;;;1.00;93.60;;;;;;5053186;28;19966;-43
2023/03/02 05:24:08;;;;;;;25.88;14.48;;;0.90;93.60;;;;;;5041761;28;20036;-43
2023/03/02 05:26:40;;;;;;;32.38;13.10;;;0.90;93.70;;;;;;5072320;28;20067;-43
2023/03/02 05:29:06;;;;;;;22.30;13.02;;;0.80;93.60;;;;;;5057620;28;20045;-43
2023/03/02 05:31:36;;;;;;;20.40;13.60;;;0.80;93.80;;;;;;5035550;28;20045;-44
2023/03/02 05:34:05;;;;;;;25.75;14.63;;;0.90;93.90;;;;;;5021431;28;20086;-45
2023/03/02 05:36:33;;;;;;;32.03;15.57;;;0.90;93.90;;;;;;5035453;28;20043;-45
2023/03/02 05:39:01;;;;;;;33.28;13.98;;;0.90;93.70;;;;;;5038633;28;20404;-46
2023/03/02 05:41:33;;;;;;;25.58;13.95;;;0.90;93.70;;;;;;5073011;28;20028;-44
2023/03/02 05:44:00;;;;;;;26.33;14.13;;;0.90;93.70;;;;;;5053992;28;20040;-43
2023/03/02 05:46:26;;;;;;;26.13;13.60;;;0.70;93.60;;;;;;5044662;28;20051;-44
2023/03/02 05:48:53;;;;;;;23.60;14.45;;;0.70;93.70;;;;;;5055200;28;20416;-45
2023/03/02 05:51:19;;;;;;;24.27;15.38;;;0.70;93.70;;;;;;5035899;28;20025;-43
2023/03/02 05:53:47;;;;;;;26.65;15.93;;;0.70;93.80;;;;;;5052899;28;20109;-45
2023/03/02 05:56:15;;;;;;;27.48;15.27;;;0.70;93.70;;;;;;5068773;28;20056;-45
2023/03/02 05:58:43;;;;;;;24.25;14.77;;;0.70;93.80;;;;;;5072833;28;20029;-44
2023/03/02 06:01:12;;;;;;;25.53;14.17;;;0.70;93.80;;;;;;5066358;28;20065;-44
2023/03/02 06:03:48;;;;;;;24.77;15.50;;;0.80;93.90;;;;;;5035909;28;20259;-43
2023/03/02 06:06:17;;;;;;;29.95;15.77;;;0.80;93.90;;;;;;5070491;28;20361;-44
2023/03/02 06:08:45;;;;;;;34.90;16.45;;;0.80;93.80;;;;;;5055556;28;20039;-46
2023/03/02 06:11:12;;;;;;;30.77;15.38;;;0.70;93.50;;;;;;5054553;28;20032;-44
2023/03/02 06:13:39;;;;;;;29.20;15.48;;;0.70;93.60;;;;;;5070881;28;20322;-44
2023/03/02 06:16:07;;;;;;;29.98;16.63;;;0.70;93.60;;;;;;5065072;28;20053;-44
2023/03/02 06:18:35;;;;;;;26.88;15.60;;;0.70;93.70;;;;;;5055022;28;20025;-43
2023/03/02 06:21:02;;;;;;;30.80;16.88;;;0.80;93.90;;;;;;5072600;28;20035;-44
2023/03/02 06:23:29;;;;;;;26.95;15.77;;;0.70;93.80;;;;;;5053158;28;20066;-44
2023/03/02 06:25:55;;;;;;;25.70;15.98;;;0.80;93.80;;;;;;5065094;28;20032;-43
2023/03/02 06:28:23;;;;;;;29.08;16.50;;;0.70;93.70;;;;;;5068667;28;20419;-43
2023/03/02 06:30:52;;;;;;;28.35;16.58;;;0.80;93.90;;;;;;5034946;28;20140;-43
2023/03/02 06:33:20;;;;;;;30.73;18.40;;;0.90;93.80;;;;;;5035253;28;20104;-44
2023/03/02 06:35:47;;;;;;;31.05;18.67;;;0.90;93.90;;;;;;5052560;28;20055;-43
2023/03/02 06:38:14;;;;;;;31.30;17.13;;;1.00;93.80;;;;;;5032912;28;20064;-45
2023/03/02 06:40:40;;;;;;;32.03;18.13;;;1.00;93.70;;;;;;5059792;28;20033;-43
2023/03/02 06:43:07;;;;;;;40.20;18.02;;;1.00;93.70;;;;;;5072012;28;20032;-44
2023/03/02 06:45:44;;;;;;;32.80;18.48;;;0.90;93.50;;;;;;5068534;28;20066;-44
2023/03/02 06:48:11;;;;;;;30.25;18.17;;;0.90;93.80;;;;;;5036259;28;20028;-43
2023/03/02 06:50:38;;;;;;;38.20;19.90;;;0.90;93.60;;;;;;5055442;28;20036;-43
2023/03/02 06:53:04;;;;;;;30.80;17.40;;;0.90;93.70;;;;;;5055549;28;20115;-45
2023/03/02 06:55:31;;;;;;;29.88;16.30;;;0.90;93.80;;;;;;5061385;28;20537;-44
2023/03/02 06:57:58;;;;;;;30.48;15.57;;;0.90;93.80;;;;;;5074870;28;20461;-43
2023/03/02 07:00:26;;;;;;;36.60;17.85;;;0.90;93.80;;;;;;5066022;28;20106;-44
2023/03/02 07:02:55;;;;;;;26.75;16.45;;;1.00;93.90;;;;;;5075910;28;20413;-44
2023/03/02 07:05:23;;;;;;;27.35;14.73;;;1.00;93.80;;;;;;5058078;28;20115;-45
2023/03/02 07:07:51;;;;;;;25.77;14.82;;;1.00;93.80;;;;;;5058299;28;20531;-43
2023/03/02 07:10:17;;;;;;;25.55;14.90;;;1.10;94.00;;;;;;5066252;28;20033;-45
2023/03/02 07:12:45;;;;;;;24.00;13.95;;;1.20;93.90;;;;;;5057691;28;20462;-43
2023/03/02 07:15:14;;;;;;;32.90;15.80;;;1.20;93.90;;;;;;5061897;28;20037;-44
2023/03/02 07:17:43;;;;;;;29.95;13.95;;;1.20;93.70;;;;;;5039674;28;20040;-45
2023/03/02 07:20:12;;;;;;;21.10;12.32;;;1.10;93.60;;;;;;5038090;28;20094;-44
2023/03/02 07:22:40;;;;;;;25.02;16.15;;;1.10;93.70;;;;;;5063604;28;20094;-45
2023/03/02 07:25:06;;;;;;;28.73;13.10;;;1.00;93.60;;;;;;5037000;28;20587;-42
2023/03/02 07:27:35;;;;;;;27.98;15.80;;;1.00;93.50;;;;;;5073253;28;20369;-43
2023/03/02 07:30:02;;;;;;;25.52;15.00;;;1.10;93.70;;;;;;5074639;28;20032;-43
2023/03/02 07:32:40;;;;;;;31.48;15.25;;;1.20;93.70;;;;;;5057950;28;20031;-44
2023/03/02 07:35:06;;;;;;;34.08;16.30;;;1.20;93.70;;;;;;5055263;28;20036;-44
2023/03/02 07:37:32;;;;;;;39.80;17.10;;;1.20;93.50;;;;;;5073077;28;20113;-43
2023/03/02 07:40:00;;;;;;;23.27;13.55;;;1.20;93.50;;;;;;5056558;28;20051;-43
2023/03/02 07:42:28;;;;;;;28.23;15.23;;;1.30;93.80;;;;;;5070142;28;20025;-43
2023/03/02 07:44:56;;;;;;;23.15;13.43;;;1.40;93.70;;;;;;5075440;28;20149;-44
2023/03/02 07:47:22;;;;;;;25.15;13.30;;;1.40;93.80;;;;;;5070089;28;20175;-44
2023/03/02 07:49:49;;;;;;;21.50;13.73;;;1.40;93.40;;;;;;5054687;28;20040;-43
2023/03/02 07:52:17;;;;;;;25.55;13.73;;;1.50;93.70;;;;;;5059789;28;20056;-44
2023/03/02 07:54:44;;;;;;;24.25;14.80;;;1.50;93.50;;;;;;5075068;28;20074;-43
2023/03/02 07:57:14;;;;;;;24.48;14.73;;;1.60;93.50;;;;;;5055578;28;20033;-43
2023/03/02 07:59:43;;;;;;;24.10;15.25;;;1.60;93.40;;;;;;5074383;28;20032;-43
2023/03/02 08:02:19;;;;;;;33.78;21.25;;;1.70;93.40;;;;;;5073941;28;20131;-44
2023/03/02 08:04:48;;;;;;;28.17;20.23;;;1.70;93.40;;;;;;5057806;28;20350;-45
2023/03/02 08:07:15;;;;;;;28.92;16.90;;;1.80;93.40;;;;;;5060506;28;20083;-45
2023/03/02 08:09:40;;;;;;;18.67;13.00;;;1.80;93.20;;;;;;5054511;28;20116;-44
2023/03/02 08:12:12;;;;;;;24.75;14.25;;;1.80;93.30;;;;;;5051936;28;20104;-44
2023/03/02 08:14:42;;;;;;;25.98;16.17;;;1.90;93.20;;;;;;5055764;28;20021;-44
2023/03/02 08:17:08;;;;;;;23.48;15.10;;;1.90;93.20;;;;;;5054195;28;20055;-44
2023/03/02 08:19:35;;;;;;;21.75;13.02;;;1.90;93.10;;;;;;5036790;28;20025;-44
2023/03/02 08:22:01;;;;;;;21.52;13.95;;;2.00;93.20;;;;;;5052732;28;20040;-43
2023/03/02 08:24:28;;;;;;;24.27;15.10;;;2.10;93.10;;;;;;5036163;28;20473;-44
2023/03/02 08:26:58;;;;;;;23.33;14.23;;;2.10;92.90;;;;;;5065690;28;20036;-45
2023/03/02 08:29:25;;;;;;;26.88;15.02;;;2.00;92.40;;;;;;5035098;28;20037;-44
2023/03/02 08:31:57;;;;;;;19.20;13.02;;;2.00;92.30;;;;;;5067057;28;20536;-43
2023/03/02 08:34:29;;;;;;;26.35;15.02;;;2.00;92.60;;;;;;5068784;28;20036;-44
2023/03/02 08:36:57;;;;;;;21.30;15.98;;;2.10;92.20;;;;;;5036943;28;20414;-44
2023/03/02 08:39:29;;;;;;;25.27;16.73;;;2.00;92.00;;;;;;5054018;28;20064;-43
2023/03/02 08:41:57;;;;;;;19.75;13.23;;;2.00;92.20;;;;;;5065704;28;20075;-44
2023/03/02 08:44:23;;;;;;;32.15;13.68;;;2.10;92.20;;;;;;5073476;28;20039;-44
2023/03/02 08:46:54;;;;;;;21.92;14.60;;;2.00;91.90;;;;;;5052080;28;20478;-44
2023/03/02 08:49:21;;;;;;;36.05;24.10;;;2.10;92.00;;;;;;5053442;28;20446;-45
2023/03/02 08:51:55;;;;;;;35.05;20.08;;;2.20;92.30;;;;;;5064920;28;20032;-44
2023/03/02 08:54:22;;;;;;;37.90;24.27;;;2.20;91.90;;;;;;5074156;28;20086;-44
2023/03/02 08:56:49;;;;;;;111.15;57.28;;;2.30;92.10;;;;;;5068995;28;20029;-44
2023/03/02 08:59:19;;;;;;;29.40;19.63;;;2.40;91.90;;;;;;5073830;28;20024;-44
2023/03/02 09:01:50;;;;;;;42.72;15.98;;;2.50;91.80;;;;;;5070928;28;20068;-44
2023/03/02 09:04:18;;;;;;;24.58;17.98;;;2.40;91.20;;;;;;5073128;28;20041;-44
2023/03/02 09:06:45;;;;;;;22.77;18.10;;;2.30;91.10;;;;;;5057486;28;20033;-43
2023/03/02 09:09:17;;;;;;;21.40;13.68;;;2.40;91.40;;;;;;5053309;28;20040;-44
2023/03/02 09:11:45;;;;;;;17.88;13.65;;;2.40;91.00;;;;;;5045818;28;20461;-44
2023/03/02 09:14:14;;;;;;;18.67;12.35;;;2.40;91.10;;;;;;5071104;28;20028;-48
2023/03/02 09:16:39;;;;;;;17.92;12.98;;;2.50;91.10;;;;;;5061655;28;20053;-43
2023/03/02 09:19:10;;;;;;;17.52;12.48;;;2.50;90.90;;;;;;5052793;28;20114;-44
2023/03/02 09:21:38;;;;;;;16.10;11.73;;;2.50;90.80;;;;;;5042278;28;20037;-43
2023/03/02 09:24:05;;;;;;;17.05;11.20;;;2.70;90.70;;;;;;5053585;28;20087;-45
2023/03/02 09:26:33;;;;;;;17.42;11.32;;;2.70;90.40;;;;;;5042367;28;20024;-44
2023/03/02 09:29:00;;;;;;;20.23;13.15;;;2.70;90.20;;;;;;5069538;28;20397;-46
2023/03/02 09:31:27;;;;;;;16.25;11.20;;;2.80;89.90;;;;;;5070186;28;20094;-44
2023/03/02 09:33:55;;;;;;;20.75;12.57;;;2.80;89.80;;;;;;5068726;28;20040;-45
2023/03/02 09:36:24;;;;;;;17.27;11.93;;;2.70;89.10;;;;;;5052694;28;20431;-43
2023/03/02 09:38:54;;;;;;;20.08;12.88;;;2.60;89.60;;;;;;5018644;28;20513;-44
2023/03/02 09:41:51;;;;;;;16.65;11.10;;;2.60;89.90;;;;;;5052403;28;20384;-44
2023/03/02 09:44:35;;;;;;;16.40;11.35;;;2.60;90.00;;;;;;5072993;28;20056;-44
2023/03/02 09:47:21;;;;;;;15.95;11.25;;;2.70;89.90;;;;;;5072775;28;20086;-45
2023/03/02 09:50:16;;;;;;;18.55;11.73;;;2.60;89.60;;;;;;5051320;28;20159;-46
2023/03/02 09:53:08;;;;;;;17.05;11.48;;;2.60;89.70;;;;;;5052670;28;20029;-44
2023/03/02 09:55:38;;;;;;;27.20;11.05;;;2.60;89.60;;;;;;5040933;28;20017;-43
2023/03/02 09:58:16;;;;;;;18.80;11.32;;;2.50;89.10;;;;;;5073003;28;20016;-43
2023/03/02 10:00:44;;;;;;;17.08;9.65;;;2.40;89.40;;;;;;5055271;28;20032;-44
2023/03/02 10:03:21;;;;;;;15.95;8.65;;;2.40;90.10;;;;;;5054997;28;20116;-45
2023/03/02 10:06:05;;;;;;;14.80;10.35;;;2.60;90.50;;;;;;5071771;28;20068;-44
2023/03/02 10:08:36;;;;;;;16.17;8.80;;;2.50;90.00;;;;;;5055848;28;20029;-44
2023/03/02 10:11:35;;;;;;;15.30;10.40;;;2.40;90.00;;;;;;5042707;28;20044;-46
2023/03/02 10:14:19;;;;;;;20.48;9.48;;;2.40;90.20;;;;;;5054060;28;20021;-43
2023/03/02 10:17:14;;;;;;;14.18;9.05;;;2.40;90.40;;;;;;5052283;28;20049;-44
2023/03/02 10:19:55;;;;;;;17.65;10.23;;;2.50;90.50;;;;;;5027725;28;20225;-44
2023/03/02 10:22:36;;;;;;;16.35;9.05;;;2.60;89.90;;;;;;5073632;28;20024;-44
2023/03/02 10:25:39;;;;;;;15.52;10.30;;;2.60;89.70;;;;;;5057190;28;20067;-44
2023/03/02 10:28:29;;;;;;;20.40;11.60;;;2.70;90.10;;;;;;5056318;28;20033;-43
2023/03/02 10:31:19;;;;;;;13.95;9.40;;;2.80;90.10;;;;;;5046405;28;20020;-44
2023/03/02 10:33:47;;;;;;;17.42;9.30;;;2.90;89.60;;;;;;5045788;28;20363;-45
2023/03/02 10:36:29;;;;;;;15.27;9.57;;;2.90;89.00;;;;;;5048495;28;20461;-44
2023/03/02 10:38:59;;;;;;;16.23;11.18;;;2.90;88.80;;;;;;5038847;28;20036;-44
2023/03/02 10:41:45;;;;;;;17.60;11.25;;;2.90;88.80;;;;;;5064346;28;20442;-45
2023/03/02 10:44:37;;;;;;;18.98;10.85;;;2.80;88.90;;;;;;5076275;28;20036;-44
2023/03/02 10:47:06;;;;;;;29.85;10.60;;;2.90;89.20;;;;;;5062461;28;20098;-45
2023/03/02 10:49:41;;;;;;;21.00;11.00;;;2.90;88.80;;;;;;5047971;28;20039;-43
2023/03/02 10:52:20;;;;;;;13.85;9.45;;;2.80;89.20;;;;;;5047968;28;20781;-44
2023/03/02 10:54:49;;;;;;;21.60;9.63;;;2.80;89.30;;;;;;5042105;28;20029;-46
2023/03/02 10:57:37;;;;;;;22.23;10.60;;;2.90;89.20;;;;;;5036273;28;20120;-45
2023/03/02 11:00:38;;;;;;;19.77;12.93;;;3.00;89.00;;;;;;5069268;28;20495;-44
2023/03/02 11:03:21;;;;;;;19.77;11.45;;;3.10;88.80;;;;;;5056064;28;20534;-44
2023/03/02 11:05:52;;;;;;;19.08;11.40;;;3.20;88.80;;;;;;5045974;28;20044;-48
2023/03/02 11:08:27;;;;;;;16.90;11.63;;;3.10;88.90;;;;;;5058122;28;20025;-45
2023/03/02 11:11:23;;;;;;;16.38;11.13;;;3.10;89.00;;;;;;5068121;28;20036;-47
2023/03/02 11:13:48;;;;;;;23.13;12.90;;;3.00;88.70;;;;;;5053057;28;20033;-45
2023/03/02 11:16:33;;;;;;;22.85;12.50;;;3.00;89.20;;;;;;5066336;28;20059;-45
2023/03/02 11:19:28;;;;;;;17.58;10.90;;;3.00;89.10;;;;;;5069019;28;20044;-44
2023/03/02 11:22:21;;;;;;;16.23;10.70;;;3.00;89.10;;;;;;5075030;28;20358;-45
2023/03/02 11:25:02;;;;;;;17.58;10.63;;;3.10;89.40;;;;;;5074409;28;20028;-48
2023/03/02 11:27:32;;;;;;;17.38;10.50;;;3.00;89.00;;;;;;5037666;28;20057;-46
2023/03/02 11:30:21;;;;;;;21.13;13.07;;;3.00;89.40;;;;;;5037823;28;20039;-44
2023/03/02 11:33:25;;;;;;;16.23;10.60;;;3.10;89.50;;;;;;5048033;28;20036;-44
2023/03/02 11:36:14;;;;;;;20.90;13.50;;;3.20;89.50;;;;;;5057685;28;20086;-44
2023/03/02 11:38:50;;;;;;;36.53;23.30;;;3.30;89.60;;;;;;5057834;28;20055;-44
2023/03/02 11:41:36;;;;;;;49.03;35.08;;;3.40;89.70;;;;;;5064550;28;20440;-46
2023/03/02 11:44:17;;;;;;;23.23;14.63;;;3.40;89.30;;;;;;5057441;28;20036;-43
2023/03/02 11:46:48;;;;;;;23.23;15.77;;;3.40;89.10;;;;;;5057863;28;20037;-46
2023/03/02 11:49:24;;;;;;;21.75;14.25;;;3.40;89.40;;;;;;5042962;28;20040;-43
2023/03/02 11:51:59;;;;;;;20.88;13.23;;;3.50;89.00;;;;;;5068861;28;20025;-44
2023/03/02 11:54:44;;;;;;;20.15;12.18;;;3.40;89.00;;;;;;5042753;28;20029;-47
2023/03/02 11:57:27;;;;;;;21.35;12.02;;;3.50;89.30;;;;;;5031242;28;20064;-46
2023/03/02 11:59:57;;;;;;;19.45;12.45;;;3.70;89.20;;;;;;5054982;28;20033;-44
2023/03/02 12:02:27;;;;;;;21.23;13.27;;;3.60;88.70;;;;;;5063324;28;20032;-45
2023/03/02 12:05:28;;;;;;;20.58;12.43;;;3.60;88.70;;;;;;5037037;28;20033;-45
2023/03/02 12:08:00;;;;;;;20.63;12.38;;;3.70;88.70;;;;;;5053565;28;20048;-45
2023/03/02 12:10:31;;;;;;;19.92;11.75;;;3.70;88.30;;;;;;5037098;28;20067;-44
2023/03/02 12:13:10;;;;;;;20.63;10.73;;;3.70;88.40;;;;;;5056024;28;20044;-47
2023/03/02 12:15:45;;;;;;;18.52;11.00;;;3.80;88.10;;;;;;5055052;28;20076;-44
2023/03/02 12:18:43;;;;;;;17.80;10.13;;;3.90;88.10;;;;;;5054658;28;20033;-43
2023/03/02 12:21:38;;;;;;;16.83;10.13;;;3.90;87.90;;;;;;5034735;28;20045;-44
2023/03/02 12:24:06;;;;;;;15.63;9.38;;;3.90;87.50;;;;;;5036652;28;20032;-46
2023/03/02 12:26:36;;;;;;;16.63;9.35;;;3.90;87.30;;;;;;5059277;28;20032;-45
2023/03/02 12:29:13;;;;;;;15.52;10.02;;;3.90;87.00;;;;;;5040258;28;20040;-44
2023/03/02 12:31:53;;;;;;;14.65;9.43;;;4.00;87.60;;;;;;5074042;28;20119;-44
2023/03/02 12:34:36;;;;;;;14.27;8.32;;;3.90;87.00;;;;;;5071565;28;20119;-46
2023/03/02 12:37:23;;;;;;;14.50;8.48;;;4.00;87.00;;;;;;5072771;28;20389;-46
2023/03/02 12:40:10;;;;;;;15.32;7.78;;;4.00;86.50;;;;;;5053163;28;20128;-44
2023/03/02 12:43:02;;;;;;;16.85;9.32;;;4.10;86.20;;;;;;5063654;28;20090;-45
2023/03/02 12:46:12;;;;;;;12.88;8.43;;;4.00;85.70;;;;;;5054342;28;20028;-44
2023/03/02 12:49:11;;;;;;;13.63;9.65;;;4.00;85.60;;;;;;5073290;28;20103;-43
2023/03/02 12:51:54;;;;;;;16.35;8.65;;;3.90;85.60;;;;;;5009645;28;20032;-45
2023/03/02 12:54:34;;;;;;;13.13;8.52;;;3.90;86.50;;;;;;5073734;28;20123;-45
2023/03/02 12:57:05;;;;;;;14.23;10.43;;;4.00;86.70;;;;;;5055364;28;20024;-46
2023/03/02 12:59:35;;;;;;;19.20;11.07;;;3.90;86.70;;;;;;5055747;28;20116;-43
2023/03/02 13:02:20;;;;;;;15.82;10.90;;;3.90;86.70;;;;;;5073213;28;20434;-44
2023/03/02 13:05:00;;;;;;;11.98;8.43;;;3.90;87.00;;;;;;5048666;28;20035;-48
2023/03/02 13:07:59;;;;;;;15.98;12.05;;;3.90;87.10;;;;;;5045157;28;20032;-43